Aviation Digital Data Service (ADDS)

Output produced by METARs form (0926 UTC 19 April 2014)
found at http://www.aviationweather.gov/adds/metars/
 
KILG 190851Z AUTO 00000KT 10SM CLR 06/03 A3026 RMK AO2 SLP246 T00560033 58004
KILG 190523Z 1906/2006 VRB03KT P6SM OVC250 
     FM191000 33003KT P6SM BKN250 
     FM191500 35012G15KT P6SM SCT250 
     FM192200 02010KT P6SM SCT250